createdAt,value
2022-10-01T00:07:26.136Z,8.20
2022-10-01T00:17:29.061Z,9.20
2022-10-01T00:27:33.571Z,8.20
2022-10-01T00:37:37.832Z,10.90
2022-10-01T00:47:44.428Z,20.33
2022-10-01T00:57:47.736Z,7.03
2022-10-01T01:07:54.431Z,9.18
2022-10-01T01:18:05.671Z,7.32
2022-10-01T01:28:21.150Z,7.20
2022-10-01T01:38:28.063Z,7.35
2022-10-01T01:48:36.480Z,6.93
2022-10-01T01:58:40.414Z,5.72
2022-10-01T02:08:50.936Z,6.10
2022-10-01T02:19:01.609Z,6.05
2022-10-01T02:29:09.639Z,5.07
2022-10-01T02:39:16.944Z,4.07
2022-10-01T02:49:21.562Z,4.57
2022-10-01T02:59:24.563Z,2.53
2022-10-01T03:09:28.845Z,3.63
2022-10-01T03:19:31.821Z,3.00
2022-10-01T03:29:36.245Z,1.45
2022-10-01T03:39:39.349Z,1.80
2022-10-01T03:49:43.622Z,1.60
2022-10-01T03:59:46.573Z,1.33
2022-10-01T04:09:51.129Z,2.15
2022-10-01T04:19:54.103Z,0.73
2022-10-01T04:29:58.431Z,1.23
2022-10-01T04:40:01.610Z,1.83
2022-10-01T04:50:06.691Z,2.40
2022-10-01T05:10:18.944Z,2.83
2022-10-01T05:20:23.902Z,3.35
2022-10-01T05:30:28.468Z,3.25
2022-10-01T05:40:31.685Z,4.87
2022-10-01T05:50:40.279Z,4.57
2022-10-01T06:00:44.027Z,6.68
2022-10-01T06:10:48.767Z,8.15
2022-10-01T06:20:51.792Z,6.63
2022-10-01T06:30:56.103Z,11.55
2022-10-01T06:41:00.972Z,9.10
2022-10-01T06:51:05.945Z,10.25
2022-10-01T07:11:13.975Z,14.38
2022-10-01T07:21:17.121Z,11.32
2022-10-01T07:31:23.535Z,8.43
2022-10-01T07:41:26.470Z,15.93
2022-10-01T07:51:31.150Z,15.82
2022-10-01T08:11:38.963Z,17.25
2022-10-01T08:21:42.249Z,12.27
2022-10-01T08:31:46.700Z,9.85
2022-10-01T08:41:56.409Z,9.02
2022-10-01T08:52:05.052Z,10.05
2022-10-01T09:02:26.574Z,10.18
2022-10-01T09:12:42.767Z,17.88
2022-10-01T09:22:55.221Z,16.55
2022-10-01T09:33:04.949Z,19.02
2022-10-01T09:43:09.202Z,15.70
2022-10-01T09:53:19.311Z,19.07
2022-10-01T10:03:27.388Z,19.15
2022-10-01T10:13:35.235Z,14.90
2022-10-01T10:23:48.661Z,15.38
2022-10-01T10:33:57.493Z,18.83
2022-10-01T10:44:04.490Z,19.85
2022-10-01T10:54:20.100Z,13.13
2022-10-01T11:04:30.621Z,17.92
2022-10-01T11:14:48.999Z,12.63
2022-10-01T11:25:17.398Z,11.57
2022-10-01T11:35:37.393Z,16.75
2022-10-01T11:45:47.120Z,15.20
2022-10-01T11:56:15.028Z,21.92
2022-10-01T12:06:24.476Z,17.80
2022-10-01T12:16:44.796Z,14.75
2022-10-01T12:27:03.570Z,17.95
2022-10-01T12:37:21.848Z,11.38
2022-10-01T12:47:38.550Z,13.80
2022-10-01T12:57:57.029Z,16.27
2022-10-01T13:08:34.302Z,13.85
2022-10-01T13:18:52.265Z,10.65
2022-10-01T13:29:20.699Z,11.85
2022-10-01T13:39:28.012Z,12.40
2022-10-01T13:49:34.743Z,15.57
2022-10-01T13:59:39.828Z,12.57
2022-10-01T14:09:46.860Z,17.17
2022-10-01T14:19:52.068Z,10.57
2022-10-01T14:30:05.246Z,14.98
2022-10-01T14:40:18.778Z,13.40
2022-10-01T14:50:22.446Z,14.27
2022-10-01T15:00:29.704Z,16.57
2022-10-01T15:10:32.823Z,14.18
2022-10-01T15:20:37.730Z,15.85
2022-10-01T15:30:41.378Z,17.40
2022-10-01T15:40:49.027Z,15.57
2022-10-01T15:51:01.425Z,18.75
2022-10-01T16:01:10.243Z,15.80
2022-10-01T16:11:20.565Z,14.75
2022-10-01T16:21:25.177Z,16.55
2022-10-01T16:41:34.486Z,21.88
2022-10-01T16:51:42.452Z,19.50
2022-10-01T17:01:51.197Z,18.30
2022-10-01T17:11:58.307Z,18.27
2022-10-01T17:22:03.289Z,18.80
2022-10-01T17:32:06.458Z,16.73
2022-10-01T17:42:11.011Z,22.05
2022-10-01T17:52:14.107Z,20.40
2022-10-01T18:02:40.341Z,15.02
2022-10-01T18:12:42.103Z,18.00
2022-10-01T18:22:46.471Z,18.85
2022-10-01T18:32:57.004Z,20.40
2022-10-01T18:43:09.816Z,10.95
2022-10-01T18:53:26.792Z,16.23
2022-10-01T19:04:00.252Z,21.05
2022-10-01T19:14:19.763Z,20.77
2022-10-01T19:24:53.326Z,17.42
2022-10-01T19:35:05.385Z,17.15
2022-10-01T19:45:24.196Z,20.25
2022-10-01T19:55:35.060Z,19.60
2022-10-01T20:05:48.208Z,23.90
2022-10-01T20:16:00.911Z,17.55
2022-10-01T20:26:14.987Z,27.20
2022-10-01T20:36:24.925Z,24.33
2022-10-01T20:46:34.981Z,29.23
2022-10-01T20:56:42.928Z,21.42
2022-10-01T21:06:49.962Z,26.52
2022-10-01T21:17:17.501Z,27.80
2022-10-01T21:27:47.969Z,27.67
2022-10-01T21:38:01.231Z,25.75
2022-10-01T21:48:21.176Z,24.00
2022-10-01T21:58:38.678Z,26.80
2022-10-01T22:09:01.954Z,30.88
2022-10-01T22:19:10.974Z,25.92
2022-10-01T22:29:19.404Z,27.00
2022-10-01T22:39:24.714Z,33.47
2022-10-01T22:49:39.916Z,32.75
2022-10-01T23:10:01.927Z,24.08
2022-10-01T23:20:20.531Z,41.65
2022-10-01T23:30:24.793Z,33.45
2022-10-01T23:40:33.777Z,28.40
2022-10-01T23:50:42.778Z,33.88
